sensor_id;sensor_type;location;lat;lon;timestamp;P1;durP1;ratioP1;P2;durP2;ratioP2
11665;SDS011;5889;51.350;6.708;2023-06-19T00:00:29;7.38;;;6.05;;
11665;SDS011;5889;51.350;6.708;2023-06-19T00:02:56;6.30;;;5.70;;
11665;SDS011;5889;51.350;6.708;2023-06-19T00:05:23;7.38;;;5.90;;
11665;SDS011;5889;51.350;6.708;2023-06-19T00:07:50;9.15;;;6.85;;
11665;SDS011;5889;51.350;6.708;2023-06-19T00:10:17;9.48;;;7.43;;
11665;SDS011;5889;51.350;6.708;2023-06-19T00:12:46;10.00;;;6.72;;
11665;SDS011;5889;51.350;6.708;2023-06-19T00:15:13;7.07;;;6.05;;
11665;SDS011;5889;51.350;6.708;2023-06-19T00:17:40;7.60;;;6.45;;
11665;SDS011;5889;51.350;6.708;2023-06-19T00:20:08;7.32;;;6.57;;
11665;SDS011;5889;51.350;6.708;2023-06-19T00:22:35;8.10;;;6.70;;
11665;SDS011;5889;51.350;6.708;2023-06-19T00:25:02;8.15;;;6.50;;
11665;SDS011;5889;51.350;6.708;2023-06-19T00:27:30;7.53;;;6.40;;
11665;SDS011;5889;51.350;6.708;2023-06-19T00:29:58;6.75;;;6.03;;
11665;SDS011;5889;51.350;6.708;2023-06-19T00:32:27;6.53;;;5.82;;
11665;SDS011;5889;51.350;6.708;2023-06-19T00:34:54;8.25;;;6.40;;
11665;SDS011;5889;51.350;6.708;2023-06-19T00:37:21;9.48;;;7.03;;
11665;SDS011;5889;51.350;6.708;2023-06-19T00:39:48;8.15;;;6.72;;
11665;SDS011;5889;51.350;6.708;2023-06-19T00:42:15;7.68;;;5.28;;
11665;SDS011;5889;51.350;6.708;2023-06-19T00:44:42;6.88;;;5.55;;
11665;SDS011;5889;51.350;6.708;2023-06-19T00:47:11;5.85;;;5.25;;
11665;SDS011;5889;51.350;6.708;2023-06-19T00:49:38;6.68;;;5.70;;
11665;SDS011;5889;51.350;6.708;2023-06-19T00:52:05;8.55;;;6.10;;
11665;SDS011;5889;51.350;6.708;2023-06-19T00:54:33;7.95;;;6.28;;
11665;SDS011;5889;51.350;6.708;2023-06-19T00:57:00;7.70;;;6.03;;
11665;SDS011;5889;51.350;6.708;2023-06-19T00:59:27;9.00;;;6.97;;
11665;SDS011;5889;51.350;6.708;2023-06-19T01:01:54;14.60;;;8.85;;
11665;SDS011;5889;51.350;6.708;2023-06-19T01:04:24;10.52;;;6.95;;
11665;SDS011;5889;51.350;6.708;2023-06-19T01:06:53;9.50;;;6.32;;
11665;SDS011;5889;51.350;6.708;2023-06-19T01:09:24;7.22;;;6.13;;
11665;SDS011;5889;51.350;6.708;2023-06-19T01:11:55;8.20;;;6.20;;
11665;SDS011;5889;51.350;6.708;2023-06-19T01:14:28;9.40;;;6.70;;
11665;SDS011;5889;51.350;6.708;2023-06-19T01:17:02;8.02;;;6.95;;
11665;SDS011;5889;51.350;6.708;2023-06-19T01:19:31;8.88;;;6.90;;
11665;SDS011;5889;51.350;6.708;2023-06-19T01:22:01;9.65;;;7.80;;
11665;SDS011;5889;51.350;6.708;2023-06-19T01:24:29;9.88;;;7.88;;
11665;SDS011;5889;51.350;6.708;2023-06-19T01:26:56;11.65;;;9.00;;
11665;SDS011;5889;51.350;6.708;2023-06-19T01:29:23;11.40;;;8.32;;
11665;SDS011;5889;51.350;6.708;2023-06-19T01:31:52;8.55;;;7.47;;
11665;SDS011;5889;51.350;6.708;2023-06-19T01:34:24;9.13;;;8.02;;
11665;SDS011;5889;51.350;6.708;2023-06-19T01:36:53;11.55;;;7.88;;
11665;SDS011;5889;51.350;6.708;2023-06-19T01:39:23;9.95;;;8.05;;
11665;SDS011;5889;51.350;6.708;2023-06-19T01:41:51;10.82;;;7.50;;
11665;SDS011;5889;51.350;6.708;2023-06-19T01:44:20;10.90;;;8.10;;
11665;SDS011;5889;51.350;6.708;2023-06-19T01:46:48;8.98;;;7.40;;
11665;SDS011;5889;51.350;6.708;2023-06-19T01:49:15;10.43;;;7.97;;
11665;SDS011;5889;51.350;6.708;2023-06-19T01:51:43;9.27;;;7.25;;
11665;SDS011;5889;51.350;6.708;2023-06-19T01:54:10;7.15;;;6.45;;
11665;SDS011;5889;51.350;6.708;2023-06-19T01:56:38;8.15;;;7.00;;
11665;SDS011;5889;51.350;6.708;2023-06-19T01:59:05;8.52;;;6.97;;
11665;SDS011;5889;51.350;6.708;2023-06-19T02:01:32;7.82;;;6.25;;
11665;SDS011;5889;51.350;6.708;2023-06-19T02:03:59;11.15;;;8.10;;
11665;SDS011;5889;51.350;6.708;2023-06-19T02:06:26;10.55;;;7.53;;
11665;SDS011;5889;51.350;6.708;2023-06-19T02:08:53;9.38;;;7.35;;
11665;SDS011;5889;51.350;6.708;2023-06-19T02:11:20;11.90;;;8.38;;
11665;SDS011;5889;51.350;6.708;2023-06-19T02:13:48;11.77;;;8.25;;
11665;SDS011;5889;51.350;6.708;2023-06-19T02:16:15;12.35;;;8.90;;
11665;SDS011;5889;51.350;6.708;2023-06-19T02:18:43;9.13;;;6.88;;
11665;SDS011;5889;51.350;6.708;2023-06-19T02:21:10;9.82;;;7.22;;
11665;SDS011;5889;51.350;6.708;2023-06-19T02:23:37;8.15;;;7.35;;
11665;SDS011;5889;51.350;6.708;2023-06-19T02:26:04;8.45;;;7.05;;
11665;SDS011;5889;51.350;6.708;2023-06-19T02:28:31;9.25;;;7.13;;
11665;SDS011;5889;51.350;6.708;2023-06-19T02:30:59;9.93;;;7.45;;
11665;SDS011;5889;51.350;6.708;2023-06-19T02:33:26;10.02;;;7.03;;
11665;SDS011;5889;51.350;6.708;2023-06-19T02:35:53;11.13;;;7.45;;
11665;SDS011;5889;51.350;6.708;2023-06-19T02:38:24;8.68;;;7.05;;
11665;SDS011;5889;51.350;6.708;2023-06-19T02:40:51;8.95;;;7.78;;
11665;SDS011;5889;51.350;6.708;2023-06-19T02:43:18;8.30;;;7.43;;
11665;SDS011;5889;51.350;6.708;2023-06-19T02:45:45;9.82;;;7.35;;
11665;SDS011;5889;51.350;6.708;2023-06-19T02:48:13;8.95;;;7.13;;
11665;SDS011;5889;51.350;6.708;2023-06-19T02:50:41;8.02;;;6.93;;
11665;SDS011;5889;51.350;6.708;2023-06-19T02:53:08;10.15;;;6.90;;
11665;SDS011;5889;51.350;6.708;2023-06-19T02:55:36;6.80;;;5.85;;
11665;SDS011;5889;51.350;6.708;2023-06-19T02:58:03;7.47;;;5.13;;
11665;SDS011;5889;51.350;6.708;2023-06-19T03:00:30;9.60;;;5.63;;
11665;SDS011;5889;51.350;6.708;2023-06-19T03:02:57;9.07;;;5.68;;
11665;SDS011;5889;51.350;6.708;2023-06-19T03:05:25;6.25;;;4.90;;
11665;SDS011;5889;51.350;6.708;2023-06-19T03:07:52;5.75;;;4.97;;
11665;SDS011;5889;51.350;6.708;2023-06-19T03:10:19;6.07;;;5.10;;
11665;SDS011;5889;51.350;6.708;2023-06-19T03:12:46;4.82;;;4.32;;
11665;SDS011;5889;51.350;6.708;2023-06-19T03:15:13;5.78;;;4.53;;
11665;SDS011;5889;51.350;6.708;2023-06-19T03:17:40;5.25;;;4.20;;
11665;SDS011;5889;51.350;6.708;2023-06-19T03:20:08;5.43;;;4.55;;
11665;SDS011;5889;51.350;6.708;2023-06-19T03:22:38;5.15;;;4.40;;
11665;SDS011;5889;51.350;6.708;2023-06-19T03:25:06;6.70;;;4.90;;
11665;SDS011;5889;51.350;6.708;2023-06-19T03:27:34;7.47;;;4.55;;
11665;SDS011;5889;51.350;6.708;2023-06-19T03:30:01;5.68;;;3.80;;
11665;SDS011;5889;51.350;6.708;2023-06-19T03:32:31;6.70;;;4.57;;
11665;SDS011;5889;51.350;6.708;2023-06-19T03:34:58;4.25;;;3.80;;
11665;SDS011;5889;51.350;6.708;2023-06-19T03:37:25;5.20;;;4.20;;
11665;SDS011;5889;51.350;6.708;2023-06-19T03:39:53;4.30;;;3.78;;
11665;SDS011;5889;51.350;6.708;2023-06-19T03:42:20;7.10;;;4.28;;
11665;SDS011;5889;51.350;6.708;2023-06-19T03:44:47;4.20;;;3.58;;
11665;SDS011;5889;51.350;6.708;2023-06-19T03:47:14;4.63;;;3.60;;
11665;SDS011;5889;51.350;6.708;2023-06-19T03:49:41;4.72;;;3.83;;
11665;SDS011;5889;51.350;6.708;2023-06-19T03:52:08;4.70;;;4.20;;
11665;SDS011;5889;51.350;6.708;2023-06-19T03:54:35;4.68;;;3.50;;
11665;SDS011;5889;51.350;6.708;2023-06-19T03:57:04;6.00;;;3.70;;
11665;SDS011;5889;51.350;6.708;2023-06-19T03:59:33;4.82;;;3.60;;
11665;SDS011;5889;51.350;6.708;2023-06-19T04:02:00;4.68;;;3.70;;
11665;SDS011;5889;51.350;6.708;2023-06-19T04:04:27;3.90;;;3.50;;
11665;SDS011;5889;51.350;6.708;2023-06-19T04:06:54;5.82;;;3.40;;
11665;SDS011;5889;51.350;6.708;2023-06-19T04:09:21;4.90;;;3.55;;
11665;SDS011;5889;51.350;6.708;2023-06-19T04:11:48;4.30;;;3.40;;
11665;SDS011;5889;51.350;6.708;2023-06-19T04:14:16;6.18;;;3.50;;
11665;SDS011;5889;51.350;6.708;2023-06-19T04:16:43;5.03;;;3.72;;
11665;SDS011;5889;51.350;6.708;2023-06-19T04:19:10;4.55;;;3.55;;
11665;SDS011;5889;51.350;6.708;2023-06-19T04:21:40;5.05;;;4.00;;
11665;SDS011;5889;51.350;6.708;2023-06-19T04:24:07;4.70;;;4.20;;
11665;SDS011;5889;51.350;6.708;2023-06-19T04:26:34;5.82;;;4.90;;
11665;SDS011;5889;51.350;6.708;2023-06-19T04:29:01;5.47;;;4.25;;
11665;SDS011;5889;51.350;6.708;2023-06-19T04:31:30;6.85;;;3.67;;
11665;SDS011;5889;51.350;6.708;2023-06-19T04:33:57;4.90;;;4.20;;
11665;SDS011;5889;51.350;6.708;2023-06-19T04:36:24;6.10;;;4.18;;
11665;SDS011;5889;51.350;6.708;2023-06-19T04:38:50;4.72;;;3.58;;
11665;SDS011;5889;51.350;6.708;2023-06-19T04:41:17;5.65;;;3.83;;
11665;SDS011;5889;51.350;6.708;2023-06-19T04:43:44;7.00;;;3.40;;
11665;SDS011;5889;51.350;6.708;2023-06-19T04:46:11;6.82;;;3.65;;
11665;SDS011;5889;51.350;6.708;2023-06-19T04:48:39;8.65;;;4.00;;
11665;SDS011;5889;51.350;6.708;2023-06-19T04:51:06;7.43;;;3.85;;
11665;SDS011;5889;51.350;6.708;2023-06-19T04:53:33;10.52;;;4.10;;
11665;SDS011;5889;51.350;6.708;2023-06-19T04:56:00;6.88;;;3.70;;
11665;SDS011;5889;51.350;6.708;2023-06-19T04:58:27;5.90;;;3.42;;
11665;SDS011;5889;51.350;6.708;2023-06-19T05:00:54;5.90;;;3.70;;
11665;SDS011;5889;51.350;6.708;2023-06-19T05:03:21;4.72;;;3.55;;
11665;SDS011;5889;51.350;6.708;2023-06-19T05:05:49;6.47;;;4.00;;
11665;SDS011;5889;51.350;6.708;2023-06-19T05:08:16;8.15;;;3.90;;
11665;SDS011;5889;51.350;6.708;2023-06-19T05:10:43;6.78;;;3.63;;
11665;SDS011;5889;51.350;6.708;2023-06-19T05:13:10;3.95;;;3.47;;
11665;SDS011;5889;51.350;6.708;2023-06-19T05:15:37;5.45;;;3.53;;
11665;SDS011;5889;51.350;6.708;2023-06-19T05:18:04;7.28;;;3.50;;
11665;SDS011;5889;51.350;6.708;2023-06-19T05:20:31;3.63;;;3.10;;
11665;SDS011;5889;51.350;6.708;2023-06-19T05:22:59;4.22;;;3.13;;
11665;SDS011;5889;51.350;6.708;2023-06-19T05:25:26;4.65;;;3.60;;
11665;SDS011;5889;51.350;6.708;2023-06-19T05:27:53;3.55;;;3.15;;
11665;SDS011;5889;51.350;6.708;2023-06-19T05:30:21;7.07;;;3.30;;
11665;SDS011;5889;51.350;6.708;2023-06-19T05:32:49;5.57;;;3.42;;
11665;SDS011;5889;51.350;6.708;2023-06-19T05:35:17;4.10;;;3.30;;
11665;SDS011;5889;51.350;6.708;2023-06-19T05:37:44;3.55;;;3.15;;
11665;SDS011;5889;51.350;6.708;2023-06-19T05:40:12;4.15;;;3.17;;
11665;SDS011;5889;51.350;6.708;2023-06-19T05:42:40;6.63;;;2.97;;
11665;SDS011;5889;51.350;6.708;2023-06-19T05:45:07;4.53;;;2.78;;
11665;SDS011;5889;51.350;6.708;2023-06-19T05:47:34;4.85;;;2.63;;
11665;SDS011;5889;51.350;6.708;2023-06-19T05:50:01;3.47;;;2.47;;
11665;SDS011;5889;51.350;6.708;2023-06-19T05:52:28;4.57;;;2.70;;
11665;SDS011;5889;51.350;6.708;2023-06-19T05:54:55;3.20;;;2.58;;
11665;SDS011;5889;51.350;6.708;2023-06-19T05:57:24;3.55;;;2.50;;
11665;SDS011;5889;51.350;6.708;2023-06-19T05:59:51;3.63;;;2.47;;
11665;SDS011;5889;51.350;6.708;2023-06-19T06:02:19;5.60;;;2.50;;
11665;SDS011;5889;51.350;6.708;2023-06-19T06:04:46;4.68;;;2.47;;
11665;SDS011;5889;51.350;6.708;2023-06-19T06:07:13;5.53;;;2.70;;
11665;SDS011;5889;51.350;6.708;2023-06-19T06:09:40;5.82;;;2.60;;
11665;SDS011;5889;51.350;6.708;2023-06-19T06:12:07;5.13;;;3.08;;
11665;SDS011;5889;51.350;6.708;2023-06-19T06:14:36;5.95;;;3.25;;
11665;SDS011;5889;51.350;6.708;2023-06-19T06:17:03;3.67;;;2.70;;
11665;SDS011;5889;51.350;6.708;2023-06-19T06:19:31;9.65;;;3.30;;
11665;SDS011;5889;51.350;6.708;2023-06-19T06:21:58;4.65;;;2.80;;
11665;SDS011;5889;51.350;6.708;2023-06-19T06:24:24;4.00;;;2.60;;
11665;SDS011;5889;51.350;6.708;2023-06-19T06:26:52;3.90;;;2.83;;
11665;SDS011;5889;51.350;6.708;2023-06-19T06:29:20;5.50;;;2.92;;
11665;SDS011;5889;51.350;6.708;2023-06-19T06:31:48;5.45;;;2.60;;
11665;SDS011;5889;51.350;6.708;2023-06-19T06:34:17;4.75;;;2.38;;
11665;SDS011;5889;51.350;6.708;2023-06-19T06:36:44;3.90;;;2.65;;
11665;SDS011;5889;51.350;6.708;2023-06-19T06:39:11;4.57;;;3.20;;
11665;SDS011;5889;51.350;6.708;2023-06-19T06:41:38;3.58;;;2.75;;
11665;SDS011;5889;51.350;6.708;2023-06-19T06:44:11;5.25;;;2.92;;
11665;SDS011;5889;51.350;6.708;2023-06-19T06:46:38;10.35;;;3.10;;
11665;SDS011;5889;51.350;6.708;2023-06-19T06:49:06;2.88;;;2.47;;
11665;SDS011;5889;51.350;6.708;2023-06-19T06:51:33;3.88;;;2.92;;
11665;SDS011;5889;51.350;6.708;2023-06-19T06:54:00;3.97;;;2.28;;
11665;SDS011;5889;51.350;6.708;2023-06-19T06:56:27;5.25;;;2.63;;
11665;SDS011;5889;51.350;6.708;2023-06-19T06:58:54;4.00;;;3.10;;
11665;SDS011;5889;51.350;6.708;2023-06-19T07:01:21;3.20;;;2.35;;
11665;SDS011;5889;51.350;6.708;2023-06-19T07:03:48;5.20;;;3.60;;
11665;SDS011;5889;51.350;6.708;2023-06-19T07:06:16;4.75;;;3.97;;
11665;SDS011;5889;51.350;6.708;2023-06-19T07:08:43;4.90;;;3.78;;
11665;SDS011;5889;51.350;6.708;2023-06-19T07:11:12;5.63;;;3.92;;
11665;SDS011;5889;51.350;6.708;2023-06-19T07:13:39;5.28;;;3.50;;
11665;SDS011;5889;51.350;6.708;2023-06-19T07:16:06;4.18;;;3.45;;
11665;SDS011;5889;51.350;6.708;2023-06-19T07:18:33;5.68;;;3.50;;
11665;SDS011;5889;51.350;6.708;2023-06-19T07:21:03;7.55;;;3.60;;
11665;SDS011;5889;51.350;6.708;2023-06-19T07:23:40;5.05;;;3.38;;
11665;SDS011;5889;51.350;6.708;2023-06-19T07:26:07;4.88;;;3.55;;
11665;SDS011;5889;51.350;6.708;2023-06-19T07:28:35;5.07;;;3.03;;
11665;SDS011;5889;51.350;6.708;2023-06-19T07:31:02;4.07;;;2.85;;
11665;SDS011;5889;51.350;6.708;2023-06-19T07:33:29;3.40;;;2.78;;
11665;SDS011;5889;51.350;6.708;2023-06-19T07:35:56;5.38;;;3.33;;
11665;SDS011;5889;51.350;6.708;2023-06-19T07:38:23;6.25;;;3.65;;
11665;SDS011;5889;51.350;6.708;2023-06-19T07:40:51;6.15;;;3.08;;
11665;SDS011;5889;51.350;6.708;2023-06-19T07:43:18;4.22;;;3.60;;
11665;SDS011;5889;51.350;6.708;2023-06-19T07:45:47;6.07;;;2.88;;
11665;SDS011;5889;51.350;6.708;2023-06-19T07:48:14;3.83;;;3.03;;
11665;SDS011;5889;51.350;6.708;2023-06-19T07:50:41;3.45;;;2.85;;
11665;SDS011;5889;51.350;6.708;2023-06-19T07:53:08;4.57;;;2.92;;
11665;SDS011;5889;51.350;6.708;2023-06-19T07:55:35;4.30;;;2.88;;
11665;SDS011;5889;51.350;6.708;2023-06-19T07:58:03;7.97;;;3.17;;
11665;SDS011;5889;51.350;6.708;2023-06-19T08:00:30;3.22;;;2.92;;
11665;SDS011;5889;51.350;6.708;2023-06-19T08:02:57;6.22;;;3.13;;
11665;SDS011;5889;51.350;6.708;2023-06-19T08:05:24;7.22;;;3.30;;
11665;SDS011;5889;51.350;6.708;2023-06-19T08:07:51;6.78;;;3.40;;
11665;SDS011;5889;51.350;6.708;2023-06-19T08:10:18;4.40;;;3.17;;
11665;SDS011;5889;51.350;6.708;2023-06-19T08:12:45;3.38;;;2.85;;
11665;SDS011;5889;51.350;6.708;2023-06-19T08:15:14;4.85;;;2.90;;
11665;SDS011;5889;51.350;6.708;2023-06-19T08:17:41;4.03;;;2.90;;
11665;SDS011;5889;51.350;6.708;2023-06-19T08:20:08;4.93;;;3.58;;
11665;SDS011;5889;51.350;6.708;2023-06-19T08:22:35;5.82;;;3.38;;
11665;SDS011;5889;51.350;6.708;2023-06-19T08:25:03;4.85;;;3.50;;
11665;SDS011;5889;51.350;6.708;2023-06-19T08:27:31;6.10;;;3.17;;
11665;SDS011;5889;51.350;6.708;2023-06-19T08:29:58;4.57;;;3.45;;
11665;SDS011;5889;51.350;6.708;2023-06-19T08:32:26;5.90;;;3.40;;
11665;SDS011;5889;51.350;6.708;2023-06-19T08:34:53;5.20;;;3.80;;
11665;SDS011;5889;51.350;6.708;2023-06-19T08:37:20;6.30;;;3.40;;
11665;SDS011;5889;51.350;6.708;2023-06-19T08:39:47;9.25;;;3.53;;
11665;SDS011;5889;51.350;6.708;2023-06-19T08:42:14;4.07;;;3.22;;
11665;SDS011;5889;51.350;6.708;2023-06-19T08:44:41;6.43;;;3.05;;
11665;SDS011;5889;51.350;6.708;2023-06-19T08:47:08;6.63;;;3.22;;
11665;SDS011;5889;51.350;6.708;2023-06-19T08:49:37;5.63;;;3.33;;
11665;SDS011;5889;51.350;6.708;2023-06-19T08:52:05;4.82;;;3.50;;
11665;SDS011;5889;51.350;6.708;2023-06-19T08:54:33;3.35;;;2.88;;
11665;SDS011;5889;51.350;6.708;2023-06-19T08:57:09;3.50;;;3.00;;
11665;SDS011;5889;51.350;6.708;2023-06-19T08:59:37;4.15;;;3.10;;
11665;SDS011;5889;51.350;6.708;2023-06-19T09:02:04;3.70;;;2.97;;
11665;SDS011;5889;51.350;6.708;2023-06-19T09:04:31;3.50;;;2.85;;
11665;SDS011;5889;51.350;6.708;2023-06-19T09:07:00;3.92;;;3.22;;
11665;SDS011;5889;51.350;6.708;2023-06-19T09:09:29;4.25;;;3.08;;
11665;SDS011;5889;51.350;6.708;2023-06-19T09:11:58;3.47;;;2.90;;
11665;SDS011;5889;51.350;6.708;2023-06-19T09:14:32;4.22;;;3.15;;
11665;SDS011;5889;51.350;6.708;2023-06-19T09:17:01;4.15;;;2.97;;
11665;SDS011;5889;51.350;6.708;2023-06-19T09:19:28;5.25;;;2.75;;
11665;SDS011;5889;51.350;6.708;2023-06-19T09:22:00;4.25;;;2.83;;
11665;SDS011;5889;51.350;6.708;2023-06-19T09:24:34;3.72;;;3.03;;
11665;SDS011;5889;51.350;6.708;2023-06-19T09:27:08;4.72;;;3.22;;
11665;SDS011;5889;51.350;6.708;2023-06-19T09:29:38;4.38;;;2.97;;
11665;SDS011;5889;51.350;6.708;2023-06-19T09:32:16;3.95;;;3.05;;
11665;SDS011;5889;51.350;6.708;2023-06-19T09:34:46;4.45;;;3.25;;
11665;SDS011;5889;51.350;6.708;2023-06-19T09:37:16;5.65;;;3.60;;
11665;SDS011;5889;51.350;6.708;2023-06-19T09:39:47;4.30;;;3.30;;
11665;SDS011;5889;51.350;6.708;2023-06-19T09:42:18;6.20;;;3.53;;
11665;SDS011;5889;51.350;6.708;2023-06-19T09:44:49;4.53;;;2.80;;
11665;SDS011;5889;51.350;6.708;2023-06-19T09:47:21;6.18;;;3.60;;
11665;SDS011;5889;51.350;6.708;2023-06-19T09:49:50;5.35;;;3.28;;
11665;SDS011;5889;51.350;6.708;2023-06-19T09:52:22;8.07;;;3.45;;
11665;SDS011;5889;51.350;6.708;2023-06-19T09:54:49;5.50;;;3.45;;
11665;SDS011;5889;51.350;6.708;2023-06-19T09:57:17;5.25;;;3.60;;
11665;SDS011;5889;51.350;6.708;2023-06-19T09:59:45;4.32;;;3.38;;
11665;SDS011;5889;51.350;6.708;2023-06-19T10:02:16;6.20;;;3.50;;
11665;SDS011;5889;51.350;6.708;2023-06-19T10:04:45;7.93;;;3.38;;
11665;SDS011;5889;51.350;6.708;2023-06-19T10:07:16;4.53;;;3.80;;
11665;SDS011;5889;51.350;6.708;2023-06-19T10:10:01;4.68;;;3.97;;
11665;SDS011;5889;51.350;6.708;2023-06-19T10:12:37;4.68;;;3.75;;
11665;SDS011;5889;51.350;6.708;2023-06-19T10:15:09;3.95;;;3.50;;
11665;SDS011;5889;51.350;6.708;2023-06-19T10:17:41;4.90;;;3.67;;
11665;SDS011;5889;51.350;6.708;2023-06-19T10:20:19;5.82;;;3.50;;
11665;SDS011;5889;51.350;6.708;2023-06-19T10:22:57;9.40;;;4.05;;
11665;SDS011;5889;51.350;6.708;2023-06-19T10:25:29;6.95;;;3.72;;
11665;SDS011;5889;51.350;6.708;2023-06-19T10:27:57;6.07;;;3.83;;
11665;SDS011;5889;51.350;6.708;2023-06-19T10:30:25;6.63;;;3.90;;
11665;SDS011;5889;51.350;6.708;2023-06-19T10:32:53;5.18;;;3.63;;
11665;SDS011;5889;51.350;6.708;2023-06-19T10:35:20;5.88;;;3.92;;
11665;SDS011;5889;51.350;6.708;2023-06-19T10:37:49;4.97;;;4.03;;
11665;SDS011;5889;51.350;6.708;2023-06-19T10:40:16;4.97;;;4.22;;
11665;SDS011;5889;51.350;6.708;2023-06-19T10:42:45;4.30;;;3.90;;
11665;SDS011;5889;51.350;6.708;2023-06-19T10:45:13;5.05;;;3.95;;
11665;SDS011;5889;51.350;6.708;2023-06-19T10:47:42;8.60;;;4.50;;
11665;SDS011;5889;51.350;6.708;2023-06-19T10:50:10;7.13;;;4.35;;
11665;SDS011;5889;51.350;6.708;2023-06-19T10:52:42;4.88;;;4.20;;
11665;SDS011;5889;51.350;6.708;2023-06-19T10:55:09;4.57;;;4.03;;
11665;SDS011;5889;51.350;6.708;2023-06-19T10:57:37;5.28;;;4.20;;
11665;SDS011;5889;51.350;6.708;2023-06-19T11:00:09;4.78;;;4.30;;
11665;SDS011;5889;51.350;6.708;2023-06-19T11:02:38;5.28;;;3.97;;
11665;SDS011;5889;51.350;6.708;2023-06-19T11:05:08;8.82;;;4.32;;
11665;SDS011;5889;51.350;6.708;2023-06-19T11:07:36;6.78;;;4.22;;
11665;SDS011;5889;51.350;6.708;2023-06-19T11:10:04;5.80;;;4.57;;
11665;SDS011;5889;51.350;6.708;2023-06-19T11:12:32;5.22;;;4.72;;
11665;SDS011;5889;51.350;6.708;2023-06-19T11:15:02;6.72;;;4.75;;
11665;SDS011;5889;51.350;6.708;2023-06-19T11:17:31;4.82;;;4.38;;
11665;SDS011;5889;51.350;6.708;2023-06-19T11:19:58;5.80;;;4.40;;
11665;SDS011;5889;51.350;6.708;2023-06-19T11:22:35;6.93;;;5.30;;
11665;SDS011;5889;51.350;6.708;2023-06-19T11:25:06;20.45;;;18.38;;
11665;SDS011;5889;51.350;6.708;2023-06-19T11:27:34;6.47;;;4.75;;
11665;SDS011;5889;51.350;6.708;2023-06-19T11:30:05;7.60;;;5.07;;
11665;SDS011;5889;51.350;6.708;2023-06-19T11:32:36;7.38;;;5.35;;
11665;SDS011;5889;51.350;6.708;2023-06-19T11:35:07;5.70;;;4.85;;
11665;SDS011;5889;51.350;6.708;2023-06-19T11:37:37;5.75;;;4.60;;
11665;SDS011;5889;51.350;6.708;2023-06-19T11:40:08;9.95;;;4.85;;
11665;SDS011;5889;51.350;6.708;2023-06-19T11:42:46;5.78;;;4.78;;
11665;SDS011;5889;51.350;6.708;2023-06-19T11:45:14;6.43;;;4.53;;
11665;SDS011;5889;51.350;6.708;2023-06-19T11:47:44;5.07;;;4.45;;
11665;SDS011;5889;51.350;6.708;2023-06-19T11:50:12;6.68;;;5.07;;
11665;SDS011;5889;51.350;6.708;2023-06-19T11:52:41;5.50;;;4.32;;
11665;SDS011;5889;51.350;6.708;2023-06-19T11:55:09;5.40;;;4.82;;
11665;SDS011;5889;51.350;6.708;2023-06-19T11:57:36;5.95;;;4.40;;
11665;SDS011;5889;51.350;6.708;2023-06-19T12:00:12;7.97;;;4.75;;
11665;SDS011;5889;51.350;6.708;2023-06-19T12:02:40;6.65;;;4.70;;
11665;SDS011;5889;51.350;6.708;2023-06-19T12:05:09;6.38;;;4.93;;
11665;SDS011;5889;51.350;6.708;2023-06-19T12:07:37;5.57;;;4.90;;
11665;SDS011;5889;51.350;6.708;2023-06-19T12:10:04;8.15;;;5.38;;
11665;SDS011;5889;51.350;6.708;2023-06-19T12:12:35;5.22;;;4.72;;
11665;SDS011;5889;51.350;6.708;2023-06-19T12:15:03;6.40;;;5.00;;
11665;SDS011;5889;51.350;6.708;2023-06-19T12:17:31;5.88;;;5.20;;
11665;SDS011;5889;51.350;6.708;2023-06-19T12:19:59;7.60;;;5.10;;
11665;SDS011;5889;51.350;6.708;2023-06-19T12:22:29;8.05;;;5.28;;
11665;SDS011;5889;51.350;6.708;2023-06-19T12:24:56;6.22;;;5.18;;
11665;SDS011;5889;51.350;6.708;2023-06-19T12:27:22;10.60;;;5.30;;
11665;SDS011;5889;51.350;6.708;2023-06-19T12:29:49;8.35;;;5.22;;
11665;SDS011;5889;51.350;6.708;2023-06-19T12:32:16;6.68;;;4.78;;
11665;SDS011;5889;51.350;6.708;2023-06-19T12:34:43;6.03;;;4.75;;
11665;SDS011;5889;51.350;6.708;2023-06-19T12:37:11;6.07;;;4.60;;
11665;SDS011;5889;51.350;6.708;2023-06-19T12:39:41;7.68;;;4.95;;
11665;SDS011;5889;51.350;6.708;2023-06-19T12:42:08;9.50;;;4.65;;
11665;SDS011;5889;51.350;6.708;2023-06-19T12:44:37;8.15;;;5.00;;
11665;SDS011;5889;51.350;6.708;2023-06-19T12:47:04;6.13;;;4.82;;
11665;SDS011;5889;51.350;6.708;2023-06-19T12:49:32;5.35;;;4.82;;
11665;SDS011;5889;51.350;6.708;2023-06-19T12:51:59;6.57;;;5.22;;
11665;SDS011;5889;51.350;6.708;2023-06-19T12:54:26;5.20;;;4.70;;
11665;SDS011;5889;51.350;6.708;2023-06-19T12:56:54;6.43;;;5.18;;
11665;SDS011;5889;51.350;6.708;2023-06-19T12:59:21;7.13;;;4.60;;
11665;SDS011;5889;51.350;6.708;2023-06-19T13:01:48;6.38;;;4.60;;
11665;SDS011;5889;51.350;6.708;2023-06-19T13:04:15;6.88;;;4.97;;
11665;SDS011;5889;51.350;6.708;2023-06-19T13:06:42;7.63;;;5.20;;
11665;SDS011;5889;51.350;6.708;2023-06-19T13:09:09;8.18;;;5.38;;
11665;SDS011;5889;51.350;6.708;2023-06-19T13:11:36;4.55;;;4.00;;
11665;SDS011;5889;51.350;6.708;2023-06-19T13:14:05;5.47;;;4.70;;
11665;SDS011;5889;51.350;6.708;2023-06-19T13:16:32;5.57;;;4.13;;
11665;SDS011;5889;51.350;6.708;2023-06-19T13:18:59;4.85;;;4.35;;
11665;SDS011;5889;51.350;6.708;2023-06-19T13:21:26;7.25;;;5.32;;
11665;SDS011;5889;51.350;6.708;2023-06-19T13:23:52;7.15;;;5.18;;
11665;SDS011;5889;51.350;6.708;2023-06-19T13:26:19;6.15;;;4.65;;
11665;SDS011;5889;51.350;6.708;2023-06-19T13:28:46;7.80;;;5.15;;
11665;SDS011;5889;51.350;6.708;2023-06-19T13:31:15;7.32;;;5.45;;
11665;SDS011;5889;51.350;6.708;2023-06-19T13:33:42;7.32;;;4.50;;
11665;SDS011;5889;51.350;6.708;2023-06-19T13:36:09;5.53;;;4.50;;
11665;SDS011;5889;51.350;6.708;2023-06-19T13:38:36;5.30;;;4.80;;
11665;SDS011;5889;51.350;6.708;2023-06-19T13:41:13;7.20;;;4.55;;
11665;SDS011;5889;51.350;6.708;2023-06-19T13:43:40;5.10;;;4.45;;
11665;SDS011;5889;51.350;6.708;2023-06-19T13:46:07;7.20;;;4.60;;
11665;SDS011;5889;51.350;6.708;2023-06-19T13:48:36;5.28;;;4.72;;
11665;SDS011;5889;51.350;6.708;2023-06-19T13:51:03;8.25;;;4.40;;
11665;SDS011;5889;51.350;6.708;2023-06-19T13:53:30;5.65;;;4.22;;
11665;SDS011;5889;51.350;6.708;2023-06-19T13:55:57;5.35;;;4.72;;
11665;SDS011;5889;51.350;6.708;2023-06-19T13:58:24;4.47;;;3.83;;
11665;SDS011;5889;51.350;6.708;2023-06-19T14:00:51;4.03;;;3.63;;
11665;SDS011;5889;51.350;6.708;2023-06-19T14:03:18;5.50;;;4.35;;
11665;SDS011;5889;51.350;6.708;2023-06-19T14:05:46;5.25;;;4.43;;
11665;SDS011;5889;51.350;6.708;2023-06-19T14:08:13;4.03;;;3.60;;
11665;SDS011;5889;51.350;6.708;2023-06-19T14:10:40;7.70;;;4.20;;
11665;SDS011;5889;51.350;6.708;2023-06-19T14:13:08;6.78;;;4.00;;
11665;SDS011;5889;51.350;6.708;2023-06-19T14:15:35;4.18;;;3.75;;
11665;SDS011;5889;51.350;6.708;2023-06-19T14:18:02;4.88;;;3.60;;
11665;SDS011;5889;51.350;6.708;2023-06-19T14:20:29;4.40;;;3.40;;
11665;SDS011;5889;51.350;6.708;2023-06-19T14:22:57;4.78;;;3.85;;
11665;SDS011;5889;51.350;6.708;2023-06-19T14:25:26;4.82;;;3.90;;
11665;SDS011;5889;51.350;6.708;2023-06-19T14:27:53;6.72;;;3.63;;
11665;SDS011;5889;51.350;6.708;2023-06-19T14:30:20;8.02;;;4.38;;
11665;SDS011;5889;51.350;6.708;2023-06-19T14:32:47;6.35;;;4.18;;
11665;SDS011;5889;51.350;6.708;2023-06-19T14:35:14;4.65;;;4.03;;
11665;SDS011;5889;51.350;6.708;2023-06-19T14:37:45;3.70;;;3.17;;
11665;SDS011;5889;51.350;6.708;2023-06-19T14:40:13;5.00;;;3.83;;
11665;SDS011;5889;51.350;6.708;2023-06-19T14:42:40;4.50;;;3.75;;
11665;SDS011;5889;51.350;6.708;2023-06-19T14:45:07;4.97;;;3.75;;
11665;SDS011;5889;51.350;6.708;2023-06-19T14:47:35;6.38;;;3.95;;
11665;SDS011;5889;51.350;6.708;2023-06-19T14:50:02;6.15;;;3.90;;
11665;SDS011;5889;51.350;6.708;2023-06-19T14:52:29;4.40;;;3.70;;
11665;SDS011;5889;51.350;6.708;2023-06-19T14:54:56;4.82;;;4.05;;
11665;SDS011;5889;51.350;6.708;2023-06-19T14:57:25;4.32;;;3.85;;
11665;SDS011;5889;51.350;6.708;2023-06-19T14:59:52;3.97;;;3.50;;
11665;SDS011;5889;51.350;6.708;2023-06-19T15:02:19;4.18;;;3.78;;
11665;SDS011;5889;51.350;6.708;2023-06-19T15:04:46;4.85;;;3.88;;